Time;durP1;ratioP1;P1;durP2;ratioP2;P2;SDS_P1;SDS_P2;PMS_P1;PMS_P2;Temp;Humidity;BMP_temperature;BMP_pressure;BME280_temperature;BME280_humidity;BME280_pressure;Samples;Min_cycle;Max_cycle;Signal;HPM_P1;HPM_P2
2022/07/10 00:00:17;;;;;;;;;;;;;;;28.69;33.62;94821.56;4947426;28;7334;-64
2022/07/10 00:02:45;;;;;;;;;;;;;;;28.68;33.68;94817.31;4932039;28;7005;-64
2022/07/10 00:05:21;;;;;;;;;;;;;;;28.69;33.80;94818.78;4943808;28;7280;-64
2022/07/10 00:07:49;;;;;;;;;;;;;;;28.69;33.93;94818.78;4946200;28;7061;-64
2022/07/10 00:10:16;;;;;;;;;;;;;;;28.67;33.88;94818.56;4954964;28;7326;-64
2022/07/10 00:12:46;;;;;;;;;;;;;;;28.67;34.16;94812.28;4995793;28;7470;-64
2022/07/10 00:15:15;;;;;;;;;;;;;;;28.66;33.71;94814.31;4989709;28;9072;-64
2022/07/10 00:17:43;;;;;;;;;;;;;;;28.70;33.70;94811.25;4983950;28;7341;-64
2022/07/10 00:20:10;;;;;;;;;;;;;;;28.68;33.92;94811.78;5015022;28;7227;-64
2022/07/10 00:22:40;;;;;;;;;;;;;;;28.68;34.30;94813.78;5002876;28;9101;-64
2022/07/10 00:25:09;;;;;;;;;;;;;;;28.66;33.74;94814.31;4995281;28;7248;-64
2022/07/10 00:27:35;;;;;;;;;;;;;;;28.66;33.95;94811.53;4986444;28;8304;-64
2022/07/10 00:30:03;;;;;;;;;;;;;;;28.66;34.11;94817.09;5004308;28;7182;-64
2022/07/10 00:32:32;;;;;;;;;;;;;;;28.65;33.92;94815.56;4996187;28;9159;-64
2022/07/10 00:35:01;;;;;;;;;;;;;;;28.65;33.85;94821.09;5005422;28;9163;-64
2022/07/10 00:37:30;;;;;;;;;;;;;;;28.65;34.22;94810.03;4987646;28;7045;-63
2022/07/10 00:39:56;;;;;;;;;;;;;;;28.65;33.85;94810.03;4993228;28;6985;-64
2022/07/10 00:42:22;;;;;;;;;;;;;;;28.67;34.38;94807.50;5000382;28;9125;-64
2022/07/10 00:44:50;;;;;;;;;;;;;;;28.66;33.95;94806.00;5005614;28;7225;-64
2022/07/10 00:47:17;;;;;;;;;;;;;;;28.64;33.83;94805.78;5010164;28;6978;-64
2022/07/10 00:49:44;;;;;;;;;;;;;;;28.67;33.81;94813.03;5003453;28;7357;-64
2022/07/10 00:52:14;;;;;;;;;;;;;;;28.67;34.22;94813.03;4993272;28;7269;-64
2022/07/10 00:54:53;;;;;;;;;;;;;;;28.66;34.27;94811.53;5009525;28;9575;-64
2022/07/10 00:57:22;;;;;;;;;;;;;;;28.68;33.65;94805.47;5002708;28;7128;-64
2022/07/10 00:59:55;;;;;;;;;;;;;;;28.67;33.56;94804.72;5011485;28;7688;-64
2022/07/10 01:02:26;;;;;;;;;;;;;;;28.66;34.07;94806.00;5006321;28;7719;-64
2022/07/10 01:04:56;;;;;;;;;;;;;;;28.67;33.96;94804.72;4997199;28;7455;-64
2022/07/10 01:07:32;;;;;;;;;;;;;;;28.65;34.03;94801.72;4994137;28;9155;-64
2022/07/10 01:10:02;;;;;;;;;;;;;;;28.66;34.29;94802.50;5004936;28;9139;-64
2022/07/10 01:12:31;;;;;;;;;;;;;;;28.65;34.33;94803.75;4994258;28;7471;-64
2022/07/10 01:15:27;;;;;;;;;;;;;;;28.66;33.84;94796.94;4990460;28;8827;-64
2022/07/10 01:17:55;;;;;;;;;;;;;;;28.67;33.79;94801.19;5013653;28;8581;-64
2022/07/10 01:20:33;;;;;;;;;;;;;;;28.66;34.41;94792.16;5014115;28;7100;-64
2022/07/10 01:23:00;;;;;;;;;;;;;;;28.65;33.80;94790.66;5012232;28;7082;-64
2022/07/10 01:25:28;;;;;;;;;;;;;;;28.66;34.01;94783.88;4996950;28;7150;-64
2022/07/10 01:27:55;;;;;;;;;;;;;;;28.68;34.10;94794.41;4997375;28;7200;-64
2022/07/10 01:30:27;;;;;;;;;;;;;;;28.68;34.16;94791.63;5000986;28;6977;-64
2022/07/10 01:33:03;;;;;;;;;;;;;;;28.67;33.55;94784.59;5015127;28;7265;-64
2022/07/10 01:35:40;;;;;;;;;;;;;;;28.67;33.86;94790.88;4997277;28;9090;-64
2022/07/10 01:38:07;;;;;;;;;;;;;;;28.65;34.00;94784.38;5006002;28;7352;-64
2022/07/10 01:40:33;;;;;;;;;;;;;;;28.64;34.01;94780.88;5002134;28;9056;-64
2022/07/10 01:42:59;;;;;;;;;;;;;;;28.61;34.03;94773.59;5014186;28;8951;-64
2022/07/10 01:45:25;;;;;;;;;;;;;;;28.64;34.60;94780.13;5012701;28;7309;-64
2022/07/10 01:47:51;;;;;;;;;;;;;;;28.64;33.87;94780.88;5014811;28;7495;-64
2022/07/10 01:50:17;;;;;;;;;;;;;;;28.63;34.14;94781.38;4988471;28;7116;-64
2022/07/10 01:52:46;;;;;;;;;;;;;;;28.62;34.03;94783.41;5014610;28;7273;-64
2022/07/10 01:55:15;;;;;;;;;;;;;;;28.60;34.08;94772.09;5011926;28;9583;-64
2022/07/10 01:57:41;;;;;;;;;;;;;;;28.60;34.34;94779.66;4992112;28;7253;-64
2022/07/10 02:00:10;;;;;;;;;;;;;;;28.58;34.15;94777.41;5009443;28;7663;-64
2022/07/10 02:02:35;;;;;;;;;;;;;;;28.58;34.13;94776.69;4988358;28;7537;-64
2022/07/10 02:05:02;;;;;;;;;;;;;;;28.59;34.07;94767.84;4979132;28;8725;-64
2022/07/10 02:07:28;;;;;;;;;;;;;;;28.58;33.96;94774.63;5009959;28;8816;-64
2022/07/10 02:09:56;;;;;;;;;;;;;;;28.59;34.26;94781.69;4991578;28;9205;-64
2022/07/10 02:12:22;;;;;;;;;;;;;;;28.56;34.20;94774.38;5012059;28;7231;-64
2022/07/10 02:14:48;;;;;;;;;;;;;;;28.56;34.00;94774.38;4997304;28;8930;-64
2022/07/10 02:17:16;;;;;;;;;;;;;;;28.57;33.91;94775.91;5019652;28;9367;-64
2022/07/10 02:19:42;;;;;;;;;;;;;;;28.58;34.18;94779.44;4990319;28;8791;-64
2022/07/10 02:22:08;;;;;;;;;;;;;;;28.57;34.41;94780.66;5009901;28;8872;-64
2022/07/10 02:24:37;;;;;;;;;;;;;;;28.55;34.12;94777.69;4999073;28;7268;-64
2022/07/10 02:27:40;;;;;;;;;;;;;;;28.56;34.15;94771.63;5004335;28;8773;-64
2022/07/10 02:30:07;;;;;;;;;;;;;;;28.55;34.76;94778.44;4926590;29;7126;-64
2022/07/10 02:32:33;;;;;;;;;;;;;;;28.54;34.43;94776.91;4941047;28;7089;-64
2022/07/10 02:35:04;;;;;;;;;;;;;;;28.54;34.17;94776.16;4936115;28;9438;-64
2022/07/10 02:38:02;;;;;;;;;;;;;;;28.54;34.17;94785.22;4924559;28;9186;-64
2022/07/10 02:40:28;;;;;;;;;;;;;;;28.53;34.33;94780.22;4864805;29;7403;-64
2022/07/10 02:42:54;;;;;;;;;;;;;;;28.54;34.78;94782.47;4863924;29;9167;-64
2022/07/10 02:45:20;;;;;;;;;;;;;;;28.54;34.12;94782.47;4842123;29;7271;-64
2022/07/10 02:47:46;;;;;;;;;;;;;;;28.53;34.20;94789.28;4842456;29;9051;-64
2022/07/10 02:50:14;;;;;;;;;;;;;;;28.50;34.19;94787.53;4843142;29;7110;-64
2022/07/10 02:52:44;;;;;;;;;;;;;;;28.51;34.26;94783.50;4857645;29;7252;-64
2022/07/10 02:55:20;;;;;;;;;;;;;;;28.52;34.32;94784.25;4836214;29;7043;-64
2022/07/10 02:57:45;;;;;;;;;;;;;;;28.52;34.48;94784.25;4858146;29;7239;-64
2022/07/10 03:00:12;;;;;;;;;;;;;;;28.52;34.54;94784.25;4853277;29;6842;-64
2022/07/10 03:02:38;;;;;;;;;;;;;;;28.50;33.74;94779.22;4839101;29;7166;-64
2022/07/10 03:05:04;;;;;;;;;;;;;;;28.50;34.45;94782.00;4921794;28;7179;-64
2022/07/10 03:07:35;;;;;;;;;;;;;;;28.50;34.07;94782.00;4924592;29;7236;-64
2022/07/10 03:10:03;;;;;;;;;;;;;;;28.49;34.50;94783.28;4912196;29;8687;-64
2022/07/10 03:12:29;;;;;;;;;;;;;;;28.49;34.35;94777.75;4913943;28;7285;-64
2022/07/10 03:14:55;;;;;;;;;;;;;;;28.50;34.32;94784.00;4934003;28;6960;-64
2022/07/10 03:17:26;;;;;;;;;;;;;;;28.50;34.33;94787.53;4996520;28;8895;-64
2022/07/10 03:19:52;;;;;;;;;;;;;;;28.49;34.02;94783.28;4999273;28;7063;-64
2022/07/10 03:22:18;;;;;;;;;;;;;;;28.50;34.17;94787.53;4985288;28;6995;-64
2022/07/10 03:24:46;;;;;;;;;;;;;;;28.52;34.24;94787.00;4989397;28;7192;-64
2022/07/10 03:27:13;;;;;;;;;;;;;;;28.50;34.12;94793.06;4996943;28;7234;-64
2022/07/10 03:29:58;;;;;;;;;;;;;;;28.50;34.18;94784.78;5013504;28;9032;-64
2022/07/10 03:32:31;;;;;;;;;;;;;;;28.48;34.40;94783.78;5012206;28;9163;-64
2022/07/10 03:34:58;;;;;;;;;;;;;;;28.48;34.43;94789.31;5014771;28;9043;-64
2022/07/10 03:37:27;;;;;;;;;;;;;;;28.48;34.80;94789.31;4987069;28;7338;-64
2022/07/10 03:40:00;;;;;;;;;;;;;;;28.45;34.45;94788.34;4993595;28;7238;-64
2022/07/10 03:42:31;;;;;;;;;;;;;;;28.48;34.36;94789.31;5009354;28;7103;-64
2022/07/10 03:45:01;;;;;;;;;;;;;;;28.48;34.31;94792.84;5010276;28;7000;-64
2022/07/10 03:47:30;;;;;;;;;;;;;;;28.46;33.97;94789.84;5002959;28;7077;-64
2022/07/10 03:49:56;;;;;;;;;;;;;;;28.46;34.04;94787.09;4990964;28;7926;-64
2022/07/10 03:52:23;;;;;;;;;;;;;;;28.46;34.27;94789.09;5002254;28;7373;-64
2022/07/10 03:54:49;;;;;;;;;;;;;;;28.46;34.56;94778.03;5002271;28;9029;-65
2022/07/10 04:00:16;;;;;;;;;;;;;;;28.48;34.50;94781.03;5011818;28;8713;-64
2022/07/10 04:02:42;;;;;;;;;;;;;;;28.43;34.29;94771.50;4992905;28;9092;-65
2022/07/10 04:05:12;;;;;;;;;;;;;;;28.43;34.64;94779.81;5019975;28;7210;-65
2022/07/10 04:07:40;;;;;;;;;;;;;;;28.47;34.25;94782.31;5016402;28;9200;-65
2022/07/10 04:10:07;;;;;;;;;;;;;;;28.47;34.34;94777.50;5023396;28;7313;-64
2022/07/10 04:12:33;;;;;;;;;;;;;;;28.48;34.08;94779.00;5005638;28;7960;-64
2022/07/10 04:14:59;;;;;;;;;;;;;;;28.50;34.15;94782.00;5013733;28;6974;-64
2022/07/10 04:17:25;;;;;;;;;;;;;;;28.51;34.31;94785.53;5005742;28;9007;-64
2022/07/10 04:19:53;;;;;;;;;;;;;;;28.50;34.93;94779.22;4996467;28;6989;-65
2022/07/10 04:22:19;;;;;;;;;;;;;;;28.48;34.35;94773.47;4994657;28;6986;-65
2022/07/10 04:24:50;;;;;;;;;;;;;;;28.50;33.81;94773.69;4971317;28;6984;-64
2022/07/10 04:27:16;;;;;;;;;;;;;;;28.50;34.13;94776.47;4998244;28;7420;-64
2022/07/10 04:29:43;;;;;;;;;;;;;;;28.50;34.08;94775.72;5006658;28;9150;-64
2022/07/10 04:32:09;;;;;;;;;;;;;;;28.51;34.30;94771.69;4986056;28;9318;-64
2022/07/10 04:34:35;;;;;;;;;;;;;;;28.48;34.34;94776.25;5018588;28;9075;-65
2022/07/10 04:37:01;;;;;;;;;;;;;;;28.45;34.30;94768.97;4973697;28;8083;-64
2022/07/10 04:39:32;;;;;;;;;;;;;;;28.46;34.25;94767.72;5001315;28;7261;-64
2022/07/10 04:41:57;;;;;;;;;;;;;;;28.47;34.74;94766.44;5000659;28;7897;-64
2022/07/10 04:44:32;;;;;;;;;;;;;;;28.43;34.66;94765.97;4998879;28;7001;-65
2022/07/10 04:47:06;;;;;;;;;;;;;;;28.40;34.63;94771.81;5016590;28;7048;-65
2022/07/10 04:49:33;;;;;;;;;;;;;;;28.36;34.00;94769.34;4988853;28;9395;-62
2022/07/10 04:52:03;;;;;;;;;;;;;;;28.36;34.76;94774.88;5012097;28;9461;-62
2022/07/10 04:54:32;;;;;;;;;;;;;;;28.34;34.89;94774.63;4997263;28;7119;-62
2022/07/10 04:57:02;;;;;;;;;;;;;;;28.32;34.71;94777.94;4994457;28;9109;-62
2022/07/10 04:59:28;;;;;;;;;;;;;;;28.30;34.69;94780.47;4998998;28;7204;-62
2022/07/10 05:01:57;;;;;;;;;;;;;;;28.28;34.81;94780.22;5011898;28;7636;-62
2022/07/10 05:04:32;;;;;;;;;;;;;;;28.29;34.65;94775.47;4998170;28;7256;-62
2022/07/10 05:07:19;;;;;;;;;;;;;;;28.29;34.93;94781.00;5001227;28;9145;-62
2022/07/10 05:09:46;;;;;;;;;;;;;;;28.29;34.90;94786.53;4980334;28;8752;-62
2022/07/10 05:12:25;;;;;;;;;;;;;;;28.27;34.86;94781.50;4982136;28;9096;-62
2022/07/10 05:14:58;;;;;;;;;;;;;;;28.27;34.88;94780.75;4999460;28;7273;-62
2022/07/10 05:17:28;;;;;;;;;;;;;;;28.27;35.04;94781.50;4983650;28;7249;-61
2022/07/10 05:20:00;;;;;;;;;;;;;;;28.26;34.61;94782.03;4993641;28;9069;-62
2022/07/10 05:22:30;;;;;;;;;;;;;;;28.26;34.96;94768.19;4988239;28;7354;-62
2022/07/10 05:24:59;;;;;;;;;;;;;;;28.26;35.05;94774.47;4997830;28;7166;-62
2022/07/10 05:27:27;;;;;;;;;;;;;;;28.29;35.00;94778.22;5012425;28;7306;-61
2022/07/10 05:29:57;;;;;;;;;;;;;;;28.28;35.42;94787.78;4987456;28;9172;-61
2022/07/10 05:32:26;;;;;;;;;;;;;;;28.29;34.81;94778.97;5007344;28;7275;-61
2022/07/10 05:34:52;;;;;;;;;;;;;;;28.33;34.99;94786.97;5007156;28;7184;-61
2022/07/10 05:37:19;;;;;;;;;;;;;;;28.33;34.99;94789.75;4993135;28;7510;-63
2022/07/10 05:39:49;;;;;;;;;;;;;;;28.33;35.00;94786.97;4998835;28;9299;-63
2022/07/10 05:42:21;;;;;;;;;;;;;;;28.31;34.94;94792.28;5013936;28;7004;-63
2022/07/10 05:44:50;;;;;;;;;;;;;;;28.32;35.20;94793.78;4985905;28;9290;-62
2022/07/10 05:47:18;;;;;;;;;;;;;;;28.30;35.01;94799.81;4983766;28;8957;-63
2022/07/10 05:49:55;;;;;;;;;;;;;;;28.29;35.38;94786.53;4997443;28;7323;-62
2022/07/10 05:52:24;;;;;;;;;;;;;;;28.27;35.02;94780.75;4987780;28;7875;-63
2022/07/10 05:54:56;;;;;;;;;;;;;;;28.26;35.34;94780.00;4995662;28;9047;-63
2022/07/10 05:57:23;;;;;;;;;;;;;;;28.24;35.34;94779.78;4996577;28;7925;-63
2022/07/10 05:59:55;;;;;;;;;;;;;;;28.24;35.22;94784.56;4996063;28;7293;-63
2022/07/10 06:02:38;;;;;;;;;;;;;;;28.24;35.46;94784.56;5004679;28;9243;-63
2022/07/10 06:05:07;;;;;;;;;;;;;;;28.23;35.20;94791.38;4980216;28;8874;-63
2022/07/10 06:07:46;;;;;;;;;;;;;;;28.23;35.31;94792.09;4996384;28;7013;-62
2022/07/10 06:10:16;;;;;;;;;;;;;;;28.22;35.27;94789.88;5010100;28;7047;-63
2022/07/10 06:12:42;;;;;;;;;;;;;;;28.21;35.38;94789.09;5002256;28;9190;-63
2022/07/10 06:15:09;;;;;;;;;;;;;;;28.22;35.50;94789.88;5007854;28;6974;-63
2022/07/10 06:17:35;;;;;;;;;;;;;;;28.21;35.32;94794.63;4981762;28;7391;-62
2022/07/10 06:20:00;;;;;;;;;;;;;;;28.19;35.83;94793.66;5001952;28;7077;-63
2022/07/10 06:22:33;;;;;;;;;;;;;;;28.19;35.78;94783.34;4995181;28;6947;-62
2022/07/10 06:25:05;;;;;;;;;;;;;;;28.19;35.78;94788.88;5008504;28;7219;-62
2022/07/10 06:27:39;;;;;;;;;;;;;;;28.21;35.78;94788.34;4993593;28;7271;-62
2022/07/10 06:30:20;;;;;;;;;;;;;;;28.20;35.77;94786.88;4994304;28;8689;-62
2022/07/10 06:32:46;;;;;;;;;;;;;;;28.21;35.96;94788.34;5008880;28;7292;-62
2022/07/10 06:35:17;;;;;;;;;;;;;;;28.22;36.22;94789.88;5016212;28;7114;-62
2022/07/10 06:37:51;;;;;;;;;;;;;;;28.19;36.08;94786.13;5010015;28;7020;-62
2022/07/10 06:40:19;;;;;;;;;;;;;;;28.21;36.11;94788.34;5009333;28;9095;-62
2022/07/10 06:42:45;;;;;;;;;;;;;;;28.21;35.74;94794.63;5009056;28;9055;-62
2022/07/10 06:45:23;;;;;;;;;;;;;;;28.20;36.05;94798.69;4979641;28;7079;-62
2022/07/10 06:48:10;;;;;;;;;;;;;;;28.20;35.96;94792.41;5005081;28;7990;-62
2022/07/10 06:50:37;;;;;;;;;;;;;;;28.19;36.20;94790.88;5013580;28;7243;-63
2022/07/10 06:53:03;;;;;;;;;;;;;;;28.18;36.50;94790.16;4993993;28;7288;-63
2022/07/10 06:55:30;;;;;;;;;;;;;;;28.19;36.13;94793.66;4988361;28;10193;-62
2022/07/10 06:57:56;;;;;;;;;;;;;;;28.21;35.82;94796.66;4989773;28;7059;-64
2022/07/10 07:00:25;;;;;;;;;;;;;;;28.20;36.39;94793.16;4985188;28;8688;-64
2022/07/10 07:02:51;;;;;;;;;;;;;;;28.20;36.66;94795.16;4999822;28;7084;-65
2022/07/10 07:05:22;;;;;;;;;;;;;;;28.23;36.40;94796.91;4988061;28;7186;-64
2022/07/10 07:07:49;;;;;;;;;;;;;;;28.21;36.58;94791.88;4990604;28;6873;-63
2022/07/10 07:10:15;;;;;;;;;;;;;;;28.24;36.12;94795.63;5001560;28;7290;-63
2022/07/10 07:12:41;;;;;;;;;;;;;;;28.28;36.92;94793.31;4992524;28;6888;-63
2022/07/10 07:15:10;;;;;;;;;;;;;;;28.27;36.49;94783.53;5003456;28;7228;-64
2022/07/10 07:17:56;;;;;;;;;;;;;;;28.27;36.55;94787.03;4954393;28;8179;-64
2022/07/10 07:23:14;;;;;;;;;;;;;;;28.30;36.75;94790.78;5004987;28;7259;-64
2022/07/10 07:25:46;;;;;;;;;;;;;;;28.30;36.63;94788.75;5004225;28;7306;-63
2022/07/10 07:28:15;;;;;;;;;;;;;;;28.32;36.75;94802.81;5015232;28;7392;-63
2022/07/10 07:30:43;;;;;;;;;;;;;;;28.33;36.32;94793.28;4988690;28;9386;-63
2022/07/10 07:33:14;;;;;;;;;;;;;;;28.34;36.05;94785.69;4974916;28;7269;-63
2022/07/10 07:35:41;;;;;;;;;;;;;;;28.34;36.66;94788.47;5004685;28;6992;-63
2022/07/10 07:38:07;;;;;;;;;;;;;;;28.34;36.51;94791.22;4985231;28;7117;-63
2022/07/10 07:40:37;;;;;;;;;;;;;;;28.33;36.60;94800.81;4986271;28;7197;-63
2022/07/10 07:43:04;;;;;;;;;;;;;;;28.33;36.74;94793.28;5002347;28;7504;-63
2022/07/10 07:45:30;;;;;;;;;;;;;;;28.34;36.74;94799.53;5000884;28;7074;-63
2022/07/10 07:47:59;;;;;;;;;;;;;;;28.35;36.83;94792.75;5008333;28;7271;-63
2022/07/10 07:50:31;;;;;;;;;;;;;;;28.34;37.39;94785.69;4992507;28;7244;-64
2022/07/10 07:53:01;;;;;;;;;;;;;;;28.33;36.77;94796.03;5001877;28;9000;-64
2022/07/10 07:55:29;;;;;;;;;;;;;;;28.35;37.14;94799.03;4984977;28;7239;-64
2022/07/10 07:57:57;;;;;;;;;;;;;;;28.35;36.68;94790.72;5001137;28;7277;-64
2022/07/10 08:00:28;;;;;;;;;;;;;;;28.34;36.90;94791.22;5002516;28;7281;-64
2022/07/10 08:02:57;;;;;;;;;;;;;;;28.36;36.99;94797.75;4993216;28;7003;-64
2022/07/10 08:05:28;;;;;;;;;;;;;;;28.39;36.45;94798.72;5007964;28;7119;-64
2022/07/10 08:08:04;;;;;;;;;;;;;;;28.40;36.86;94797.47;5006970;28;7549;-64
2022/07/10 08:10:32;;;;;;;;;;;;;;;28.42;37.35;94797.69;5000479;28;9175;-62
2022/07/10 08:13:29;;;;;;;;;;;;;;;28.44;37.34;94795.16;5004874;28;7212;-62
2022/07/10 08:15:55;;;;;;;;;;;;;;;28.46;36.81;94795.38;4941429;28;7226;-63
2022/07/10 08:18:21;;;;;;;;;;;;;;;28.43;36.64;94790.88;4962560;28;9065;-62
2022/07/10 08:20:47;;;;;;;;;;;;;;;28.44;37.15;94794.41;4950498;28;7269;-61
2022/07/10 08:23:16;;;;;;;;;;;;;;;28.48;37.26;94795.63;4961681;28;9118;-64
2022/07/10 08:25:41;;;;;;;;;;;;;;;28.50;38.20;94789.56;4950367;28;7241;-61
2022/07/10 08:28:12;;;;;;;;;;;;;;;28.52;37.94;94792.53;4948617;28;7081;-61
2022/07/10 08:30:54;;;;;;;;;;;;;;;28.53;38.26;94785.75;4950202;28;9067;-61
2022/07/10 08:33:37;;;;;;;;;;;;;;;28.54;38.48;94793.53;4968536;28;7224;-62
2022/07/10 08:36:04;;;;;;;;;;;;;;;28.58;38.39;94793.28;4954059;28;9214;-62
2022/07/10 08:38:49;;;;;;;;;;;;;;;28.59;39.28;94792.75;4952185;28;7312;-65
2022/07/10 08:41:20;;;;;;;;;;;;;;;28.67;38.00;94787.34;4956793;28;7001;-61
2022/07/10 08:43:46;;;;;;;;;;;;;;;28.75;38.36;94791.06;4977850;28;7059;-62
2022/07/10 08:46:31;;;;;;;;;;;;;;;28.78;37.99;94784.47;4938165;28;6954;-61
2022/07/10 08:49:13;;;;;;;;;;;;;;;28.72;38.66;94781.00;4964370;28;8440;-62
2022/07/10 08:51:59;;;;;;;;;;;;;;;28.71;39.23;94780.25;4962473;28;9339;-62
2022/07/10 08:54:29;;;;;;;;;;;;;;;28.68;39.54;94781.31;4976683;28;7208;-63
2022/07/10 08:57:10;;;;;;;;;;;;;;;28.65;38.93;94782.34;4998102;28;7161;-63
2022/07/10 08:59:45;;;;;;;;;;;;;;;28.64;38.81;94778.09;4994739;28;9173;-63
2022/07/10 09:02:17;;;;;;;;;;;;;;;28.64;39.54;94771.81;4996731;28;9087;-64
2022/07/10 09:04:53;;;;;;;;;;;;;;;28.66;39.60;94778.31;4992130;28;8712;-62
2022/07/10 09:07:21;;;;;;;;;;;;;;;28.68;39.68;94781.31;4995434;28;6990;-63
2022/07/10 09:09:55;;;;;;;;;;;;;;;28.69;39.59;94777.28;5010933;28;9053;-64
2022/07/10 09:12:25;;;;;;;;;;;;;;;28.72;39.37;94783.78;5009236;28;7289;-64
2022/07/10 09:14:52;;;;;;;;;;;;;;;28.71;39.05;94779.53;4991547;28;7189;-63
2022/07/10 09:17:20;;;;;;;;;;;;;;;28.69;39.13;94782.81;4993826;28;6917;-63
2022/07/10 09:19:48;;;;;;;;;;;;;;;28.69;39.35;94782.81;4987003;28;7155;-64
2022/07/10 09:22:17;;;;;;;;;;;;;;;28.69;39.01;94782.06;5007275;28;7239;-63
2022/07/10 09:24:46;;;;;;;;;;;;;;;28.71;38.35;94780.25;4991757;28;7222;-63
2022/07/10 09:27:17;;;;;;;;;;;;;;;28.70;38.02;94776.00;5012818;28;7279;-62
2022/07/10 09:29:55;;;;;;;;;;;;;;;28.68;38.35;94783.34;4989466;28;7268;-63
2022/07/10 09:32:28;;;;;;;;;;;;;;;28.67;38.00;94787.34;4993149;28;8727;-63
2022/07/10 09:37:56;;;;;;;;;;;;;;;28.63;38.14;94784.13;5016484;28;7068;-63
2022/07/10 09:40:27;;;;;;;;;;;;;;;28.63;37.63;94786.91;5007691;28;9410;-64
2022/07/10 09:42:54;;;;;;;;;;;;;;;28.61;38.18;94787.44;4997966;28;9282;-63
2022/07/10 09:45:35;;;;;;;;;;;;;;;28.63;38.16;94779.34;4998792;28;7162;-63
2022/07/10 09:48:04;;;;;;;;;;;;;;;28.64;38.29;94782.88;5010728;28;8989;-63
2022/07/10 09:50:46;;;;;;;;;;;;;;;28.63;38.05;94776.59;4998624;28;6906;-63
2022/07/10 09:53:14;;;;;;;;;;;;;;;28.65;38.01;94782.34;4997607;28;9807;-64
2022/07/10 09:55:45;;;;;;;;;;;;;;;28.62;37.61;94783.41;4995875;28;7261;-64
2022/07/10 09:58:18;;;;;;;;;;;;;;;28.63;38.07;94784.91;5011661;28;7637;-64
2022/07/10 10:00:50;;;;;;;;;;;;;;;28.64;37.76;94789.19;4998505;28;7252;-64
2022/07/10 10:03:36;;;;;;;;;;;;;;;28.65;37.81;94785.13;4992929;28;7262;-64
2022/07/10 10:06:16;;;;;;;;;;;;;;;28.66;37.94;94783.09;5008043;28;9350;-64
2022/07/10 10:09:06;;;;;;;;;;;;;;;28.63;39.21;94776.59;4996398;28;9173;-64
2022/07/10 10:11:42;;;;;;;;;;;;;;;28.65;39.70;94776.81;5009521;28;7314;-64
2022/07/10 10:14:08;;;;;;;;;;;;;;;28.64;39.54;94778.09;4985927;28;8745;-64
2022/07/10 10:16:37;;;;;;;;;;;;;;;28.67;39.32;94779.06;4995503;28;7240;-64
2022/07/10 10:21:49;;;;;;;;;;;;;;;28.73;39.66;94777.72;5005224;28;9056;-64
2022/07/10 10:24:17;;;;;;;;;;;;;;;28.74;39.81;94768.16;4989408;28;8993;-64
2022/07/10 10:26:45;;;;;;;;;;;;;;;28.75;39.42;94763.38;5006335;28;9056;-64
2022/07/10 10:29:13;;;;;;;;;;;;;;;28.74;39.62;94765.38;4993888;28;9462;-64
2022/07/10 10:31:57;;;;;;;;;;;;;;;28.74;39.25;94768.16;4985677;28;7435;-64
2022/07/10 10:34:55;;;;;;;;;;;;;;;28.76;39.29;94768.38;5008789;28;7367;-64
2022/07/10 10:37:31;;;;;;;;;;;;;;;28.78;39.34;94762.31;4988599;28;9371;-64
2022/07/10 10:39:57;;;;;;;;;;;;;;;28.79;39.35;94770.13;4974426;28;7468;-63
2022/07/10 10:42:37;;;;;;;;;;;;;;;28.82;39.21;94760.75;4988826;28;7248;-64
2022/07/10 10:45:23;;;;;;;;;;;;;;;28.83;39.57;94765.03;4992567;28;9142;-64
2022/07/10 10:48:08;;;;;;;;;;;;;;;28.83;39.40;94762.25;5000531;28;9005;-64
2022/07/10 10:50:55;;;;;;;;;;;;;;;28.87;39.12;94770.25;4978340;28;7193;-63
2022/07/10 10:53:31;;;;;;;;;;;;;;;28.88;39.29;94766.22;4977096;28;9114;-64
2022/07/10 10:56:00;;;;;;;;;;;;;;;28.87;39.11;94768.22;4992329;28;7231;-63
2022/07/10 10:58:52;;;;;;;;;;;;;;;28.89;38.67;94760.16;5000145;28;7246;-64
2022/07/10 11:01:21;;;;;;;;;;;;;;;28.85;39.21;94768.00;5007128;28;9373;-62
2022/07/10 11:04:08;;;;;;;;;;;;;;;28.84;39.46;94763.72;4995288;28;7277;-62
2022/07/10 11:06:46;;;;;;;;;;;;;;;28.82;40.05;94763.50;4991580;28;7342;-63
2022/07/10 11:09:29;;;;;;;;;;;;;;;28.83;40.13;94755.97;5006688;28;7203;-63
2022/07/10 11:12:22;;;;;;;;;;;;;;;28.83;39.68;94753.19;4993181;28;8425;-62
2022/07/10 11:14:50;;;;;;;;;;;;;;;28.87;39.90;94756.41;4948872;28;9087;-63
2022/07/10 11:17:36;;;;;;;;;;;;;;;28.90;40.41;94749.81;4947989;28;7659;-63
2022/07/10 11:20:03;;;;;;;;;;;;;;;28.94;40.20;94747.50;4948000;28;8351;-62
2022/07/10 11:22:51;;;;;;;;;;;;;;;28.94;39.94;94748.25;4943986;28;8203;-62
2022/07/10 11:25:24;;;;;;;;;;;;;;;28.95;40.44;94744.19;4932764;28;6987;-61
2022/07/10 11:28:08;;;;;;;;;;;;;;;28.97;40.29;94741.66;4947131;28;8118;-62
2022/07/10 11:30:55;;;;;;;;;;;;;;;29.00;40.56;94743.38;4926021;28;7063;-62
2022/07/10 11:33:29;;;;;;;;;;;;;;;29.03;40.02;94742.34;4943272;28;8835;-63
2022/07/10 11:35:56;;;;;;;;;;;;;;;29.13;39.64;94731.59;4930488;28;7238;-62
2022/07/10 11:38:24;;;;;;;;;;;;;;;29.16;39.67;94735.34;4930506;28;7203;-63
2022/07/10 11:40:54;;;;;;;;;;;;;;;29.15;40.23;94731.06;4929389;28;6995;-62
2022/07/10 11:43:23;;;;;;;;;;;;;;;29.12;39.41;94730.13;4945024;28;7665;-61
2022/07/10 11:45:52;;;;;;;;;;;;;;;29.12;38.59;94723.84;4919796;28;7137;-62
2022/07/10 11:48:27;;;;;;;;;;;;;;;29.08;38.58;94730.41;4947978;28;9140;-63
2022/07/10 11:51:03;;;;;;;;;;;;;;;29.12;38.15;94730.13;4943192;28;7292;-61
2022/07/10 11:53:32;;;;;;;;;;;;;;;29.10;38.06;94727.13;5001250;28;6993;-61
2022/07/10 11:55:58;;;;;;;;;;;;;;;29.07;38.13;94731.72;5003396;28;9150;-61
2022/07/10 11:58:24;;;;;;;;;;;;;;;29.02;38.06;94724.22;5000331;28;7077;-62
2022/07/10 12:01:08;;;;;;;;;;;;;;;29.04;37.69;94729.97;5000212;28;9498;-62
2022/07/10 12:03:34;;;;;;;;;;;;;;;29.03;38.14;94728.50;5007442;28;7245;-61
2022/07/10 12:06:05;;;;;;;;;;;;;;;29.02;37.85;94720.69;4986914;28;7287;-62
2022/07/10 12:08:45;;;;;;;;;;;;;;;29.04;37.98;94715.38;4983672;28;7241;-62
2022/07/10 12:11:17;;;;;;;;;;;;;;;29.03;38.00;94716.66;5002597;28;9060;-61
2022/07/10 12:13:47;;;;;;;;;;;;;;;29.05;37.83;94714.13;4994783;28;7250;-62
2022/07/10 12:16:44;;;;;;;;;;;;;;;29.05;37.57;94714.88;5006435;28;7633;-62
2022/07/10 12:19:14;;;;;;;;;;;;;;;29.07;38.10;94719.88;4947496;28;7825;-62
2022/07/10 12:21:42;;;;;;;;;;;;;;;29.05;37.83;94711.34;4960856;28;7188;-62
2022/07/10 12:24:09;;;;;;;;;;;;;;;29.03;38.07;94709.09;4950864;29;7508;-62
2022/07/10 12:26:44;;;;;;;;;;;;;;;29.05;37.76;94716.88;4951227;28;9016;-62
2022/07/10 12:29:38;;;;;;;;;;;;;;;29.05;37.56;94720.41;4969260;28;9017;-62
2022/07/10 12:32:06;;;;;;;;;;;;;;;29.09;37.76;94720.84;4943071;28;7002;-62
2022/07/10 12:34:46;;;;;;;;;;;;;;;29.14;38.01;94721.28;4971352;28;9091;-62
2022/07/10 12:37:14;;;;;;;;;;;;;;;29.12;37.57;94716.28;4955943;28;7367;-62
2022/07/10 12:39:47;;;;;;;;;;;;;;;29.14;37.54;94718.50;4964387;28;7501;-62
2022/07/10 12:42:25;;;;;;;;;;;;;;;29.13;37.89;94708.69;4971601;28;6987;-62
2022/07/10 12:45:17;;;;;;;;;;;;;;;29.13;37.37;94715.00;4955315;28;7332;-62
2022/07/10 12:47:48;;;;;;;;;;;;;;;29.16;37.42;94710.41;4956332;28;9297;-62
2022/07/10 12:50:30;;;;;;;;;;;;;;;29.12;37.68;94707.97;4962795;28;7233;-62
2022/07/10 12:53:14;;;;;;;;;;;;;;;29.13;37.72;94712.22;4953769;28;9088;-63
2022/07/10 12:55:41;;;;;;;;;;;;;;;29.14;38.17;94704.66;4975064;28;9156;-62
2022/07/10 12:58:12;;;;;;;;;;;;;;;29.13;37.94;94715.00;5001554;28;9273;-62
2022/07/10 13:00:50;;;;;;;;;;;;;;;29.17;37.66;94709.19;4989833;28;7770;-62
2022/07/10 13:03:20;;;;;;;;;;;;;;;29.16;38.08;94711.22;4986007;28;7013;-63
2022/07/10 13:05:49;;;;;;;;;;;;;;;29.14;37.74;94710.19;4996907;28;7236;-62
2022/07/10 13:08:24;;;;;;;;;;;;;;;29.15;37.50;94711.69;5009490;28;7228;-62
2022/07/10 13:10:59;;;;;;;;;;;;;;;29.08;37.99;94701.97;4986740;28;7240;-62
2022/07/10 13:13:32;;;;;;;;;;;;;;;29.09;37.64;94709.00;5012102;28;7187;-62
2022/07/10 13:16:00;;;;;;;;;;;;;;;29.12;37.29;94701.69;4999919;28;7515;-62
2022/07/10 13:18:27;;;;;;;;;;;;;;;29.14;37.30;94701.91;4998129;28;7085;-62
2022/07/10 13:20:56;;;;;;;;;;;;;;;29.14;37.28;94699.13;4999501;28;7305;-62
2022/07/10 13:23:25;;;;;;;;;;;;;;;29.14;37.25;94697.09;4994046;28;7063;-62
2022/07/10 13:25:55;;;;;;;;;;;;;;;29.15;37.48;94706.16;4991949;28;7580;-62
2022/07/10 13:28:30;;;;;;;;;;;;;;;29.13;37.16;94689.31;4979820;28;7232;-62
2022/07/10 13:31:03;;;;;;;;;;;;;;;29.15;37.69;94695.06;4981551;28;7059;-62